Time;durP1;ratioP1;P1;durP2;ratioP2;P2;SDS_P1;SDS_P2;PMS_P1;PMS_P2;Temp;Humidity;BMP_temperature;BMP_pressure;BME280_temperature;BME280_humidity;BME280_pressure;Samples;Min_cycle;Max_cycle;Signal;HPM_P1;HPM_P2
2023/03/27 00:02:24;;;;;;;0.40;0.40;;;2.60;99.90;;;;;;5070738;22;20449;-86
2023/03/27 00:04:49;;;;;;;0.40;0.40;;;2.50;99.90;;;;;;5071967;28;20660;-86
2023/03/27 00:07:15;;;;;;;0.40;0.40;;;2.50;99.90;;;;;;5059659;28;20186;-86
2023/03/27 00:09:43;;;;;;;0.40;0.40;;;2.40;99.90;;;;;;5052250;28;20190;-86
2023/03/27 00:12:14;;;;;;;0.40;0.40;;;2.40;99.90;;;;;;5057126;22;20601;-86
2023/03/27 00:14:40;;;;;;;0.40;0.40;;;2.40;99.90;;;;;;5051044;28;20464;-86
2023/03/27 00:17:05;;;;;;;0.40;0.40;;;2.20;99.90;;;;;;5056800;28;20440;-86
2023/03/27 00:19:32;;;;;;;0.40;0.40;;;2.10;99.90;;;;;;5054436;28;20461;-86
2023/03/27 00:22:00;;;;;;;0.50;0.50;;;2.10;99.90;;;;;;5124118;23;20236;-86
2023/03/27 00:24:25;;;;;;;0.50;0.50;;;2.10;99.90;;;;;;5094990;28;20580;-86
2023/03/27 00:27:00;;;;;;;0.43;0.43;;;2.10;99.90;;;;;;5078139;28;20480;-85
2023/03/27 00:29:27;;;;;;;0.50;0.50;;;2.10;99.90;;;;;;5078892;28;20462;-86
2023/03/27 00:31:52;;;;;;;0.50;0.50;;;2.20;99.90;;;;;;5096953;28;20435;-85
2023/03/27 00:34:18;;;;;;;0.40;0.40;;;2.20;99.90;;;;;;5072220;28;20520;-85
2023/03/27 00:36:47;;;;;;;0.50;0.50;;;2.10;99.90;;;;;;5091111;28;20672;-85
2023/03/27 00:39:13;;;;;;;0.50;0.50;;;2.10;99.90;;;;;;5095711;28;20237;-85
2023/03/27 00:41:43;;;;;;;0.47;0.47;;;2.20;99.90;;;;;;5083546;28;20446;-85
2023/03/27 00:44:29;;;;;;;0.50;0.50;;;2.10;99.90;;;;;;5093496;28;20415;-86
2023/03/27 00:46:56;;;;;;;0.50;0.50;;;2.00;99.90;;;;;;5103832;22;20502;-85
2023/03/27 00:49:24;;;;;;;0.40;0.40;;;2.00;99.90;;;;;;5095750;28;20443;-86
2023/03/27 00:52:03;;;;;;;0.40;0.40;;;1.90;99.90;;;;;;5096334;28;20539;-86
2023/03/27 00:54:34;;;;;;;0.40;0.40;;;1.90;99.90;;;;;;5059976;28;20898;-85
2023/03/27 00:57:05;;;;;;;0.50;0.50;;;1.80;99.90;;;;;;5081967;22;20661;-86
2023/03/27 00:59:34;;;;;;;0.40;0.40;;;1.80;99.90;;;;;;5075701;28;20459;-86
2023/03/27 01:02:02;;;;;;;0.50;0.50;;;1.80;99.90;;;;;;5073128;28;20458;-86
2023/03/27 01:04:30;;;;;;;0.40;0.40;;;1.80;99.90;;;;;;5089966;22;20490;-83
2023/03/27 01:06:57;;;;;;;0.50;0.50;;;1.70;99.90;;;;;;5077773;28;20438;-86
2023/03/27 01:09:25;;;;;;;0.50;0.50;;;1.70;99.90;;;;;;5071129;28;20483;-86
2023/03/27 01:12:13;;;;;;;0.50;0.50;;;1.80;99.90;;;;;;5093750;22;20492;-86
2023/03/27 01:15:17;;;;;;;0.40;0.40;;;1.70;99.90;;;;;;5034402;28;21027;-86
2023/03/27 01:17:55;;;;;;;0.50;0.50;;;1.80;99.90;;;;;;5027579;28;20803;-86
2023/03/27 01:23:07;;;;;;;0.50;0.50;;;1.70;99.90;;;;;;5096813;23;20476;-85
2023/03/27 01:26:04;;;;;;;0.57;0.57;;;1.70;99.90;;;;;;5075528;28;20289;-85
2023/03/27 01:28:53;;;;;;;0.50;0.50;;;1.70;99.90;;;;;;5070828;28;20429;-86
2023/03/27 01:31:38;;;;;;;0.50;0.50;;;1.60;99.90;;;;;;5083313;22;20501;-85
2023/03/27 01:34:15;;;;;;;0.50;0.50;;;1.60;99.90;;;;;;5090485;28;20530;-86
2023/03/27 01:36:59;;;;;;;0.50;0.50;;;1.70;99.90;;;;;;5094136;28;20958;-86
2023/03/27 01:39:34;;;;;;;0.50;0.50;;;1.70;99.90;;;;;;5081210;23;20491;-85
2023/03/27 01:42:04;;;;;;;0.50;0.50;;;1.70;99.90;;;;;;5096657;28;20427;-86
2023/03/27 01:44:46;;;;;;;0.50;0.50;;;1.60;99.90;;;;;;5086577;28;20435;-86
2023/03/27 01:47:35;;;;;;;0.50;0.50;;;1.70;99.90;;;;;;5148968;22;20597;-86
2023/03/27 01:50:18;;;;;;;0.50;0.50;;;1.60;99.90;;;;;;5088908;28;20424;-86
2023/03/27 01:52:52;;;;;;;0.50;0.50;;;1.60;99.90;;;;;;5091975;28;20482;-86
2023/03/27 01:57:59;;;;;;;0.40;0.40;;;1.60;99.90;;;;;;5030312;28;20474;-85
2023/03/27 02:00:29;;;;;;;0.40;0.40;;;1.60;99.90;;;;;;5025413;28;20453;-84
2023/03/27 02:03:26;;;;;;;0.50;0.50;;;1.70;99.90;;;;;;5031716;28;20523;-85
2023/03/27 02:06:15;;;;;;;0.47;0.47;;;1.70;99.90;;;;;;5035095;22;20488;-86
2023/03/27 02:08:56;;;;;;;0.50;0.50;;;1.70;99.90;;;;;;5073664;28;20440;-86
2023/03/27 02:11:26;;;;;;;0.50;0.50;;;1.60;99.90;;;;;;5077972;28;20459;-85
2023/03/27 02:14:20;;;;;;;0.30;0.30;;;1.60;99.90;;;;;;5072433;28;20584;-86
2023/03/27 02:16:58;;;;;;;0.50;0.50;;;1.60;99.90;;;;;;5043253;28;20836;-85
2023/03/27 02:19:34;;;;;;;0.50;0.50;;;1.70;99.90;;;;;;5056002;28;20433;-86
2023/03/27 02:21:59;;;;;;;0.50;0.50;;;1.70;99.90;;;;;;5080472;22;20936;-85
2023/03/27 02:24:25;;;;;;;0.50;0.50;;;1.50;99.90;;;;;;5074048;28;20533;-85
2023/03/27 02:27:21;;;;;;;0.50;0.50;;;1.50;99.90;;;;;;5076569;28;20283;-86
2023/03/27 02:30:12;;;;;;;0.40;0.40;;;1.60;99.90;;;;;;5060542;28;20206;-85
2023/03/27 02:33:13;;;;;;;0.50;0.50;;;1.50;99.90;;;;;;5079231;28;20488;-85
2023/03/27 02:35:54;;;;;;;0.50;0.50;;;1.60;99.90;;;;;;5069663;28;20461;-86
2023/03/27 02:38:46;;;;;;;0.40;0.40;;;1.50;99.90;;;;;;5076059;28;20540;-85
2023/03/27 02:41:28;;;;;;;0.30;0.30;;;1.50;99.90;;;;;;5076151;28;20455;-85
2023/03/27 02:44:13;;;;;;;0.43;0.43;;;1.60;99.90;;;;;;5069821;28;20447;-86
2023/03/27 02:47:03;;;;;;;0.40;0.40;;;1.50;99.90;;;;;;5083562;22;20431;-85
2023/03/27 02:49:36;;;;;;;0.50;0.50;;;1.50;99.90;;;;;;5081934;22;20999;-85
2023/03/27 02:52:15;;;;;;;0.40;0.40;;;1.50;99.90;;;;;;5078954;28;20471;-85
2023/03/27 02:54:47;;;;;;;0.50;0.50;;;1.50;99.90;;;;;;5056345;28;20460;-85
2023/03/27 02:57:18;;;;;;;0.50;0.50;;;1.50;99.90;;;;;;5074568;28;20432;-85
2023/03/27 02:59:52;;;;;;;0.40;0.40;;;1.50;99.90;;;;;;5057271;28;20448;-86
2023/03/27 03:02:45;;;;;;;0.40;0.40;;;1.50;99.90;;;;;;5058903;28;20444;-86
2023/03/27 03:05:16;;;;;;;0.50;0.50;;;1.70;99.90;;;;;;5142230;22;20494;-86
2023/03/27 03:07:45;;;;;;;0.40;0.40;;;1.60;99.90;;;;;;5039453;28;20433;-86
2023/03/27 03:10:12;;;;;;;0.30;0.30;;;1.60;99.90;;;;;;5057122;28;20540;-87
2023/03/27 03:15:06;;;;;;;0.50;0.50;;;1.50;99.90;;;;;;5072253;22;20921;-86
2023/03/27 03:17:33;;;;;;;0.43;0.43;;;1.40;99.90;;;;;;5056480;28;20198;-86
2023/03/27 03:19:59;;;;;;;0.40;0.40;;;1.40;99.90;;;;;;5039775;28;20441;-85
2023/03/27 03:22:25;;;;;;;0.50;0.50;;;1.30;99.90;;;;;;5081759;23;20851;-86
2023/03/27 03:24:50;;;;;;;0.40;0.40;;;1.30;99.90;;;;;;5081862;28;20211;-86
2023/03/27 03:27:19;;;;;;;0.43;0.43;;;1.30;99.90;;;;;;5078334;28;20455;-86
2023/03/27 03:29:49;;;;;;;0.50;0.50;;;1.10;99.90;;;;;;5074704;28;20213;-86
2023/03/27 03:32:14;;;;;;;0.50;0.50;;;1.20;99.90;;;;;;5098297;28;20435;-86
2023/03/27 03:34:45;;;;;;;0.50;0.50;;;1.30;99.90;;;;;;5092562;28;20510;-86
2023/03/27 03:37:11;;;;;;;0.37;0.37;;;1.20;99.90;;;;;;5074021;28;20189;-85
2023/03/27 03:39:37;;;;;;;0.50;0.50;;;1.10;99.90;;;;;;5097588;28;20499;-86
2023/03/27 03:42:02;;;;;;;0.40;0.40;;;1.10;99.90;;;;;;5078904;28;20443;-85
2023/03/27 03:44:37;;;;;;;0.50;0.50;;;1.10;99.90;;;;;;5092381;28;20669;-86
2023/03/27 03:47:03;;;;;;;0.50;0.50;;;1.10;99.90;;;;;;5095971;28;20200;-86
2023/03/27 03:49:29;;;;;;;0.50;0.50;;;1.10;99.90;;;;;;5079197;28;20440;-86
2023/03/27 03:51:55;;;;;;;0.57;0.57;;;1.10;99.90;;;;;;5096492;28;20451;-85
2023/03/27 03:54:20;;;;;;;0.50;0.50;;;1.20;99.90;;;;;;5097902;28;20263;-86
2023/03/27 03:56:47;;;;;;;0.50;0.50;;;1.10;99.90;;;;;;5184954;22;20564;-86
2023/03/27 03:59:20;;;;;;;0.50;0.50;;;1.10;99.90;;;;;;5083343;28;20650;-86
2023/03/27 04:04:13;;;;;;;0.50;0.50;;;1.00;99.90;;;;;;5052667;28;20461;-85
2023/03/27 04:06:42;;;;;;;0.40;0.40;;;1.10;99.90;;;;;;5059710;28;20433;-87
2023/03/27 04:09:07;;;;;;;0.40;0.40;;;0.90;99.90;;;;;;5056585;28;20291;-85
2023/03/27 04:11:33;;;;;;;0.50;0.50;;;1.00;99.90;;;;;;5055074;22;20626;-86
2023/03/27 04:14:05;;;;;;;0.50;0.50;;;0.80;99.90;;;;;;5080029;22;20705;-86
2023/03/27 04:16:33;;;;;;;0.50;0.50;;;0.80;99.90;;;;;;5073737;28;20186;-84
2023/03/27 04:18:59;;;;;;;0.60;0.60;;;0.80;99.90;;;;;;5076518;28;20444;-86
2023/03/27 04:21:25;;;;;;;0.40;0.40;;;0.80;99.90;;;;;;5167259;22;20593;-86
2023/03/27 04:23:51;;;;;;;0.50;0.50;;;0.80;99.90;;;;;;5096838;28;20943;-86
2023/03/27 04:26:16;;;;;;;0.40;0.40;;;0.80;99.90;;;;;;5090137;28;20193;-86
2023/03/27 04:28:53;;;;;;;0.50;0.50;;;0.80;99.90;;;;;;5102359;23;20236;-86
2023/03/27 04:31:18;;;;;;;0.50;0.50;;;0.70;99.90;;;;;;5073488;28;20240;-86
2023/03/27 04:33:45;;;;;;;0.60;0.60;;;0.70;99.90;;;;;;5097116;28;20491;-85
2023/03/27 04:36:15;;;;;;;0.53;0.53;;;0.70;99.90;;;;;;5101779;22;20247;-87
2023/03/27 04:38:40;;;;;;;0.50;0.50;;;0.70;99.90;;;;;;5067587;23;20536;-86
2023/03/27 04:41:06;;;;;;;0.60;0.60;;;0.70;99.90;;;;;;5074123;28;21050;-86
2023/03/27 04:43:41;;;;;;;0.60;0.60;;;0.70;99.90;;;;;;5058686;28;20194;-86
2023/03/27 04:46:07;;;;;;;0.43;0.43;;;0.70;99.90;;;;;;5078012;22;20504;-86
2023/03/27 04:48:37;;;;;;;0.50;0.50;;;0.70;99.90;;;;;;5078825;28;20933;-86
2023/03/27 04:51:04;;;;;;;0.60;0.60;;;0.70;99.90;;;;;;5089340;28;20450;-85
2023/03/27 04:53:31;;;;;;;0.60;0.60;;;0.70;99.90;;;;;;5099077;22;20581;-86
2023/03/27 04:55:56;;;;;;;0.50;0.50;;;0.70;99.90;;;;;;5137586;22;20511;-86
2023/03/27 04:58:24;;;;;;;0.50;0.50;;;0.70;99.90;;;;;;5054028;28;20444;-86
2023/03/27 05:03:18;;;;;;;0.50;0.50;;;0.70;99.90;;;;;;5113068;22;20497;-87
2023/03/27 05:05:49;;;;;;;0.40;0.40;;;0.70;99.90;;;;;;5067256;28;20977;-87
2023/03/27 05:08:16;;;;;;;0.60;0.60;;;0.70;99.90;;;;;;5098150;22;20275;-86
2023/03/27 05:10:42;;;;;;;0.50;0.50;;;0.70;99.90;;;;;;5086273;28;21015;-87
2023/03/27 05:13:08;;;;;;;0.40;0.40;;;0.60;99.90;;;;;;5077149;28;20563;-87
2023/03/27 05:15:34;;;;;;;0.50;0.50;;;0.60;99.90;;;;;;5091119;28;21109;-87
2023/03/27 05:18:00;;;;;;;0.50;0.50;;;0.70;99.90;;;;;;5093472;28;20587;-87
2023/03/27 05:20:26;;;;;;;0.50;0.50;;;0.70;99.90;;;;;;5087915;28;20435;-85
2023/03/27 05:22:53;;;;;;;0.33;0.33;;;0.70;99.90;;;;;;5087510;28;20185;-87
2023/03/27 05:25:19;;;;;;;0.60;0.60;;;0.90;99.90;;;;;;5089815;28;20435;-87
2023/03/27 05:27:46;;;;;;;0.50;0.50;;;0.80;99.90;;;;;;5070583;28;20542;-87
2023/03/27 05:30:14;;;;;;;0.50;0.50;;;0.80;99.90;;;;;;5069740;28;20562;-87
2023/03/27 05:32:52;;;;;;;0.40;0.40;;;0.80;99.90;;;;;;5087482;28;20444;-89
2023/03/27 05:35:22;;;;;;;0.40;0.40;;;0.80;99.90;;;;;;5089095;28;20448;-88
2023/03/27 05:37:49;;;;;;;0.53;0.53;;;0.80;99.90;;;;;;5091596;28;20580;-86
2023/03/27 05:40:16;;;;;;;0.60;0.60;;;0.80;99.90;;;;;;5091618;28;20435;-86
2023/03/27 05:42:45;;;;;;;0.60;0.60;;;0.80;99.90;;;;;;5082298;23;20856;-86
2023/03/27 05:45:23;;;;;;;0.57;0.57;;;0.90;99.90;;;;;;5085459;28;20815;-88
2023/03/27 05:47:54;;;;;;;0.60;0.60;;;0.90;99.90;;;;;;5094565;28;20446;-87
2023/03/27 05:50:23;;;;;;;0.50;0.50;;;1.00;99.90;;;;;;5074615;28;20868;-88
2023/03/27 05:52:57;;;;;;;0.50;0.50;;;0.90;99.90;;;;;;5079567;23;20870;-87
2023/03/27 05:55:31;;;;;;;0.50;0.50;;;1.00;99.90;;;;;;5072443;28;20971;-85
2023/03/27 05:57:57;;;;;;;0.60;0.60;;;1.00;99.90;;;;;;5094643;28;20491;-86
2023/03/27 06:00:26;;;;;;;0.50;0.50;;;1.10;99.90;;;;;;5091427;22;20577;-86
2023/03/27 06:02:57;;;;;;;0.40;0.40;;;1.10;99.90;;;;;;5049253;28;20195;-88
2023/03/27 06:05:23;;;;;;;0.40;0.40;;;1.20;99.90;;;;;;5044185;28;20457;-87
2023/03/27 06:07:49;;;;;;;0.50;0.50;;;1.20;99.90;;;;;;5053219;28;20652;-87
2023/03/27 06:10:26;;;;;;;0.40;0.40;;;1.30;99.90;;;;;;5097877;22;20528;-86
2023/03/27 06:13:05;;;;;;;0.50;0.50;;;1.50;99.90;;;;;;5082671;28;20466;-86
2023/03/27 06:15:31;;;;;;;0.50;0.50;;;1.60;99.90;;;;;;5083057;28;20553;-87
2023/03/27 06:17:56;;;;;;;0.40;0.40;;;1.80;99.90;;;;;;5120051;22;20486;-86
2023/03/27 06:20:36;;;;;;;0.40;0.40;;;2.00;99.90;;;;;;5092552;28;20546;-87
2023/03/27 06:23:05;;;;;;;0.40;0.40;;;2.00;99.90;;;;;;5089723;28;20176;-86
2023/03/27 06:25:32;;;;;;;0.50;0.50;;;2.00;99.90;;;;;;5093604;28;20810;-86
2023/03/27 06:27:58;;;;;;;0.30;0.30;;;2.00;99.90;;;;;;5072893;28;20455;-86
2023/03/27 06:30:24;;;;;;;0.50;0.50;;;2.10;99.90;;;;;;5090677;28;20455;-86
2023/03/27 06:32:58;;;;;;;0.50;0.50;;;2.20;99.90;;;;;;5091577;28;20224;-85
2023/03/27 06:35:30;;;;;;;0.50;0.50;;;2.20;99.90;;;;;;5063494;28;20442;-84
2023/03/27 06:37:57;;;;;;;0.47;0.47;;;2.30;99.90;;;;;;5063189;28;20992;-85
2023/03/27 06:40:26;;;;;;;0.50;0.50;;;2.40;99.90;;;;;;5082938;28;20438;-84
2023/03/27 06:45:45;;;;;;;0.40;0.40;;;2.60;99.90;;;;;;5072956;23;20494;-84
2023/03/27 06:48:11;;;;;;;0.50;0.50;;;2.70;99.90;;;;;;5055109;28;20454;-83
2023/03/27 06:50:38;;;;;;;0.30;0.30;;;2.90;99.90;;;;;;5067820;28;20896;-83
2023/03/27 06:53:04;;;;;;;0.30;0.30;;;3.00;99.90;;;;;;5061249;23;20491;-84
2023/03/27 06:55:42;;;;;;;0.50;0.50;;;3.00;99.90;;;;;;5048312;28;20875;-85
2023/03/27 06:58:12;;;;;;;0.50;0.50;;;3.10;99.90;;;;;;5048211;28;20444;-86
2023/03/27 07:00:39;;;;;;;0.40;0.40;;;3.00;99.90;;;;;;5049949;28;20498;-84
2023/03/27 07:03:07;;;;;;;0.50;0.50;;;3.30;99.90;;;;;;5071234;28;20438;-85
2023/03/27 07:05:35;;;;;;;0.40;0.40;;;3.20;99.90;;;;;;5054479;28;21062;-85
2023/03/27 07:08:02;;;;;;;0.40;0.40;;;3.30;99.90;;;;;;5080971;23;20554;-85
2023/03/27 07:10:40;;;;;;;0.40;0.40;;;3.40;99.90;;;;;;5055830;28;21004;-85
2023/03/27 07:13:06;;;;;;;0.40;0.40;;;3.50;99.90;;;;;;5054306;28;20476;-84
2023/03/27 07:15:32;;;;;;;0.30;0.30;;;3.60;99.90;;;;;;5075471;28;20455;-85
2023/03/27 07:18:05;;;;;;;0.40;0.40;;;3.60;99.90;;;;;;5075777;28;20436;-86
2023/03/27 07:20:33;;;;;;;0.40;0.40;;;3.80;99.90;;;;;;5051652;28;20182;-85
2023/03/27 07:23:08;;;;;;;0.33;0.33;;;3.90;99.90;;;;;;5073050;28;20527;-85
2023/03/27 07:25:37;;;;;;;0.40;0.40;;;3.90;99.90;;;;;;5075326;28;20466;-85
2023/03/27 07:28:06;;;;;;;0.40;0.40;;;4.00;99.90;;;;;;5058256;28;20440;-84
2023/03/27 07:30:32;;;;;;;0.37;0.37;;;3.90;99.90;;;;;;5061968;28;20444;-85
2023/03/27 07:32:58;;;;;;;0.40;0.40;;;4.00;99.90;;;;;;5099146;22;20491;-84
2023/03/27 07:35:24;;;;;;;0.40;0.40;;;4.40;99.90;;;;;;5076461;28;20812;-85
2023/03/27 07:37:52;;;;;;;0.33;0.33;;;4.50;99.90;;;;;;5070308;28;20192;-85
2023/03/27 07:40:21;;;;;;;0.40;0.40;;;4.50;99.90;;;;;;5085584;28;20450;-86
2023/03/27 07:42:48;;;;;;;0.40;0.40;;;4.40;99.90;;;;;;5074946;28;20435;-87
2023/03/27 07:45:15;;;;;;;0.40;0.40;;;4.40;99.90;;;;;;5074965;28;20447;-86
2023/03/27 07:47:42;;;;;;;0.40;0.40;;;5.00;99.90;;;;;;5092199;22;20495;-84
2023/03/27 07:50:13;;;;;;;0.30;0.30;;;5.30;99.90;;;;;;5102084;23;20503;-86
2023/03/27 07:52:48;;;;;;;0.40;0.40;;;5.40;99.90;;;;;;5085036;28;20478;-86
2023/03/27 07:55:17;;;;;;;0.40;0.40;;;5.70;99.90;;;;;;5089686;28;20961;-84
2023/03/27 07:57:48;;;;;;;0.30;0.30;;;5.70;99.90;;;;;;5024882;22;1437893;-84
2023/03/27 08:00:21;;;;;;;0.30;0.30;;;5.50;99.90;;;;;;5063602;28;20815;-84
2023/03/27 08:02:49;;;;;;;0.40;0.40;;;5.80;99.90;;;;;;5064631;28;20443;-84
2023/03/27 08:05:16;;;;;;;0.30;0.30;;;5.70;99.90;;;;;;5070790;28;20497;-84
2023/03/27 08:07:44;;;;;;;0.20;0.20;;;5.60;99.90;;;;;;5070393;28;20451;-85
2023/03/27 08:10:10;;;;;;;0.40;0.40;;;5.90;99.90;;;;;;5067397;28;20474;-84
2023/03/27 08:12:37;;;;;;;0.30;0.30;;;5.70;99.90;;;;;;5072601;28;20428;-85
2023/03/27 08:15:04;;;;;;;0.30;0.30;;;5.90;99.90;;;;;;5068846;28;20456;-84
2023/03/27 08:17:31;;;;;;;0.40;0.40;;;6.00;99.90;;;;;;5069534;28;20436;-84
2023/03/27 08:19:57;;;;;;;0.30;0.30;;;6.40;99.90;;;;;;5053271;28;21121;-85
2023/03/27 08:24:53;;;;;;;0.30;0.30;;;6.20;99.90;;;;;;5035889;28;20489;-85
2023/03/27 08:27:19;;;;;;;0.30;0.30;;;6.10;99.90;;;;;;5014857;28;20442;-85
2023/03/27 08:29:44;;;;;;;0.30;0.30;;;6.60;99.90;;;;;;5007475;28;20211;-84
2023/03/27 08:32:10;;;;;;;0.30;0.30;;;6.10;99.90;;;;;;5030355;28;20644;-83
2023/03/27 08:34:37;;;;;;;0.30;0.30;;;5.90;99.90;;;;;;5026147;28;20386;-85
2023/03/27 08:37:03;;;;;;;0.30;0.30;;;6.50;99.90;;;;;;5008966;28;20445;-85
2023/03/27 08:39:35;;;;;;;0.30;0.30;;;6.90;99.90;;;;;;5028270;23;21005;-85
2023/03/27 08:42:05;;;;;;;0.30;0.30;;;6.80;99.90;;;;;;5033437;28;21541;-85
2023/03/27 08:44:32;;;;;;;0.30;0.30;;;6.70;99.90;;;;;;5048820;28;20448;-84
2023/03/27 08:47:21;;;;;;;0.20;0.20;;;6.90;99.90;;;;;;5044293;28;20453;-85
2023/03/27 08:50:25;;;;;;;0.30;0.30;;;6.80;99.90;;;;;;5033751;28;20465;-84
2023/03/27 08:52:50;;;;;;;0.30;0.30;;;7.10;99.90;;;;;;5046500;28;20516;-84
2023/03/27 08:55:32;;;;;;;0.30;0.30;;;7.50;99.90;;;;;;5048447;28;20538;-84
2023/03/27 08:57:58;;;;;;;0.30;0.30;;;6.90;99.90;;;;;;5040706;28;20546;-86
2023/03/27 09:00:30;;;;;;;0.30;0.30;;;7.10;99.90;;;;;;5043977;28;20441;-84
2023/03/27 09:03:05;;;;;;;0.30;0.30;;;6.80;99.90;;;;;;5059246;23;20823;-84
2023/03/27 09:05:54;;;;;;;0.30;0.30;;;7.10;99.90;;;;;;5074238;28;20937;-85
2023/03/27 09:08:20;;;;;;;0.30;0.30;;;7.50;99.90;;;;;;5071732;28;20466;-85
2023/03/27 09:11:11;;;;;;;0.30;0.30;;;7.50;99.90;;;;;;5054632;28;20929;-85
2023/03/27 09:14:03;;;;;;;0.30;0.30;;;8.30;99.90;;;;;;5038542;28;20495;-86
2023/03/27 09:16:35;;;;;;;0.20;0.20;;;8.50;99.90;;;;;;5071619;28;20870;-85
2023/03/27 09:19:13;;;;;;;0.20;0.20;;;8.70;99.90;;;;;;5061700;28;20487;-82
2023/03/27 09:21:59;;;;;;;0.20;0.20;;;8.80;99.90;;;;;;5066823;22;20486;-84
2023/03/27 09:24:41;;;;;;;0.20;0.20;;;8.90;99.90;;;;;;5031917;28;22056;-84
2023/03/27 09:30:16;;;;;;;0.20;0.20;;;7.90;99.90;;;;;;5078624;22;20495;-85
2023/03/27 09:32:42;;;;;;;0.30;0.30;;;8.00;99.90;;;;;;5050722;28;20451;-85
2023/03/27 09:35:19;;;;;;;0.20;0.20;;;7.80;99.90;;;;;;5048814;28;20672;-85
2023/03/27 09:37:55;;;;;;;0.30;0.30;;;7.60;99.90;;;;;;5072621;28;20435;-84
2023/03/27 09:40:30;;;;;;;0.27;0.27;;;7.30;99.90;;;;;;5051152;28;20412;-86
2023/03/27 09:43:05;;;;;;;0.30;0.30;;;7.40;99.90;;;;;;5056063;28;20474;-87
2023/03/27 09:45:31;;;;;;;0.30;0.30;;;7.20;99.90;;;;;;5067291;28;20526;-84
2023/03/27 09:48:13;;;;;;;0.30;0.30;;;7.10;99.90;;;;;;5077030;28;20444;-85
2023/03/27 09:50:45;;;;;;;0.30;0.30;;;7.20;99.90;;;;;;5050906;28;21010;-84
2023/03/27 09:53:22;;;;;;;0.30;0.30;;;6.80;99.90;;;;;;5065908;28;20563;-84
2023/03/27 09:56:13;;;;;;;0.30;0.30;;;6.60;99.90;;;;;;5070914;28;20479;-82
2023/03/27 09:58:47;;;;;;;0.30;0.30;;;6.60;99.90;;;;;;5065919;28;20470;-82
2023/03/27 10:01:26;;;;;;;0.30;0.30;;;6.40;99.90;;;;;;5074905;22;21641;-82
2023/03/27 10:03:54;;;;;;;0.30;0.30;;;6.20;99.90;;;;;;5073101;28;20462;-83
2023/03/27 10:06:29;;;;;;;0.30;0.30;;;5.30;99.90;;;;;;5088127;28;20428;-84
2023/03/27 10:08:59;;;;;;;0.30;0.30;;;4.60;99.90;;;;;;5067487;28;20442;-84
2023/03/27 10:11:29;;;;;;;0.30;0.30;;;4.50;99.90;;;;;;5094762;22;20536;-82
2023/03/27 10:13:57;;;;;;;0.30;0.30;;;4.30;99.90;;;;;;5083952;28;20567;-83
2023/03/27 10:16:23;;;;;;;0.40;0.40;;;4.10;99.90;;;;;;5086855;28;20442;-83
2023/03/27 10:19:01;;;;;;;0.40;0.40;;;4.10;99.90;;;;;;5091578;22;20502;-84
2023/03/27 10:21:37;;;;;;;0.40;0.40;;;4.60;99.90;;;;;;5085697;27;20423;-85
2023/03/27 10:24:19;;;;;;;0.20;0.20;;;5.00;99.90;;;;;;5083109;28;20488;-83
2023/03/27 10:27:19;;;;;;;0.30;0.30;;;5.70;99.90;;;;;;5094828;22;20483;-84
2023/03/27 10:29:45;;;;;;;0.40;0.40;;;6.10;99.90;;;;;;5062560;28;20450;-84
2023/03/27 10:32:10;;;;;;;0.30;0.30;;;6.40;99.90;;;;;;5090246;28;20454;-84
2023/03/27 10:34:40;;;;;;;0.30;0.30;;;7.10;99.90;;;;;;5090854;28;20851;-84
2023/03/27 10:37:20;;;;;;;0.23;0.23;;;7.60;99.90;;;;;;5086530;28;20303;-84
2023/03/27 10:39:46;;;;;;;0.30;0.30;;;8.40;99.90;;;;;;5089942;28;20431;-84
2023/03/27 10:42:15;;;;;;;0.20;0.20;;;9.10;99.90;;;;;;5075627;23;20469;-83
2023/03/27 10:44:43;;;;;;;0.20;0.20;;;9.30;99.90;;;;;;5055117;28;20452;-84
2023/03/27 10:47:24;;;;;;;0.20;0.20;;;9.50;99.90;;;;;;5056979;28;20449;-83
2023/03/27 10:49:59;;;;;;;0.20;0.20;;;9.90;99.90;;;;;;5064797;22;20471;-83
2023/03/27 10:52:34;;;;;;;0.20;0.20;;;10.40;99.90;;;;;;5059767;23;20616;-83
2023/03/27 10:55:22;;;;;;;0.10;0.10;;;11.10;99.90;;;;;;5090220;28;20545;-84
2023/03/27 10:57:53;;;;;;;0.10;0.10;;;11.00;99.90;;;;;;5077101;28;20446;-83
2023/03/27 11:00:31;;;;;;;0.10;0.10;;;11.30;99.90;;;;;;5073928;28;20599;-83
2023/03/27 11:03:25;;;;;;;0.10;0.10;;;11.70;99.90;;;;;;5094292;28;20457;-83
2023/03/27 11:08:28;;;;;;;0.10;0.10;;;11.40;99.90;;;;;;5096538;23;20482;-83
2023/03/27 11:11:00;;;;;;;0.10;0.10;;;11.40;99.90;;;;;;5074906;28;20196;-80
2023/03/27 11:13:37;;;;;;;0.10;0.10;;;11.10;99.90;;;;;;5066224;23;20588;-81
2023/03/27 11:16:34;;;;;;;0.10;0.10;;;12.00;99.90;;;;;;5032319;23;20556;-82
2023/03/27 11:19:09;;;;;;;0.10;0.10;;;;;;;;;;5029239;28;20434;-82
2023/03/27 11:21:53;;;;;;;0.10;0.10;;;12.80;99.90;;;;;;5029655;28;20445;-82
2023/03/27 11:24:34;;;;;;;0.10;0.10;;;13.20;99.90;;;;;;5034789;28;20434;-82
2023/03/27 11:27:19;;;;;;;0.10;0.10;;;12.90;99.90;;;;;;5040432;28;20457;-82
2023/03/27 11:29:57;;;;;;;0.10;0.10;;;;;;;;;;5023696;28;20608;-81
2023/03/27 11:32:58;;;;;;;0.10;0.10;;;10.90;99.90;;;;;;5062641;23;20512;-83
2023/03/27 11:35:27;;;;;;;0.10;0.10;;;9.90;99.90;;;;;;5012804;28;20472;-83
2023/03/27 11:37:58;;;;;;;0.20;0.20;;;9.90;99.90;;;;;;5014496;28;20544;-82
2023/03/27 11:40:41;;;;;;;0.17;0.17;;;10.10;99.90;;;;;;5118216;23;21332;-82
2023/03/27 11:43:11;;;;;;;0.10;0.10;;;11.20;99.90;;;;;;5094529;28;20455;-83
2023/03/27 11:46:09;;;;;;;0.20;0.20;;;11.20;99.90;;;;;;5057481;28;20452;-80
2023/03/27 11:51:53;;;;;;;0.10;0.10;;;10.60;99.90;;;;;;5063169;23;20515;-82
2023/03/27 11:54:47;;;;;;;0.20;0.20;;;9.60;99.90;;;;;;5051940;28;20477;-83
2023/03/27 11:57:21;;;;;;;0.20;0.20;;;;;;;;;;5056771;23;21292;-82
2023/03/27 11:59:54;;;;;;;0.20;0.20;;;8.00;99.90;;;;;;5054962;28;20420;-83
2023/03/27 12:02:24;;;;;;;0.30;0.30;;;;;;;;;;5055549;28;20531;-83
2023/03/27 12:05:02;;;;;;;0.20;0.20;;;7.10;99.90;;;;;;5074078;28;20428;-84
2023/03/27 12:08:36;;;;;;;0.30;0.30;;;6.70;99.90;;;;;;5088354;28;20444;-83
2023/03/27 12:11:04;;;;;;;0.30;0.30;;;6.60;99.90;;;;;;5002793;28;20439;-83
2023/03/27 12:13:54;;;;;;;0.30;0.30;;;6.70;99.90;;;;;;5004991;28;20996;-83
2023/03/27 12:16:33;;;;;;;0.30;0.30;;;6.70;99.90;;;;;;5067250;28;20472;-83
2023/03/27 12:19:19;;;;;;;0.30;0.30;;;6.50;99.90;;;;;;5071394;28;20424;-83
2023/03/27 12:22:16;;;;;;;0.20;0.20;;;7.40;99.90;;;;;;5085624;23;20495;-83
2023/03/27 12:24:41;;;;;;;0.23;0.23;;;8.30;99.90;;;;;;5076255;28;20443;-83
2023/03/27 12:27:18;;;;;;;0.30;0.30;;;8.20;99.90;;;;;;5074483;28;20962;-82
2023/03/27 12:30:22;;;;;;;0.20;0.20;;;8.00;99.90;;;;;;5068212;23;20305;-83
2023/03/27 12:33:03;;;;;;;0.20;0.20;;;8.00;99.90;;;;;;5091898;28;20443;-83
2023/03/27 12:35:34;;;;;;;0.20;0.20;;;8.40;99.90;;;;;;5083547;28;20538;-85
2023/03/27 12:38:31;;;;;;;0.27;0.27;;;8.90;99.90;;;;;;5091387;28;20431;-84
2023/03/27 12:41:19;;;;;;;0.20;0.20;;;9.40;99.90;;;;;;5089187;28;20578;-81
2023/03/27 12:44:05;;;;;;;0.20;0.20;;;9.70;99.90;;;;;;5097182;28;20442;-84
2023/03/27 12:46:37;;;;;;;0.20;0.20;;;9.10;99.90;;;;;;5093643;28;20451;-83
2023/03/27 12:49:15;;;;;;;0.20;0.20;;;8.70;99.90;;;;;;5095404;28;20499;-84
2023/03/27 12:51:42;;;;;;;0.20;0.20;;;;;;;;;;5072318;28;20443;-84
2023/03/27 12:56:39;;;;;;;0.10;0.10;;;12.90;99.90;;;;;;5073586;23;20875;-84
2023/03/27 13:00:09;;;;;;;0.10;0.10;;;13.40;99.90;;;;;;5065176;28;20448;-84
2023/03/27 13:03:08;;;;;;;0.10;0.10;;;13.00;99.90;;;;;;5011136;28;20540;-84
2023/03/27 13:06:00;;;;;;;0.10;0.10;;;13.20;99.90;;;;;;5074650;28;20440;-84
2023/03/27 13:09:04;;;;;;;0.10;0.10;;;13.30;99.90;;;;;;5074288;28;20969;-85
2023/03/27 13:12:03;;;;;;;0.10;0.10;;;13.00;99.90;;;;;;5133687;22;20546;-85
2023/03/27 13:14:56;;;;;;;0.10;0.10;;;13.00;99.90;;;;;;5050619;28;21007;-84
2023/03/27 13:17:40;;;;;;;0.10;0.10;;;13.40;99.90;;;;;;5065135;22;20448;-83
2023/03/27 13:20:21;;;;;;;0.10;0.10;;;13.10;99.90;;;;;;5040817;22;20514;-83
2023/03/27 13:23:08;;;;;;;0.10;0.10;;;13.30;99.90;;;;;;4983510;28;20482;-84
2023/03/27 13:26:03;;;;;;;0.10;0.10;;;13.30;99.90;;;;;;5000916;28;20475;-83
2023/03/27 13:28:41;;;;;;;0.10;0.10;;;13.50;99.90;;;;;;5045593;22;20500;-83
2023/03/27 13:31:10;;;;;;;0.10;0.10;;;12.80;99.90;;;;;;5010920;28;20534;-83
2023/03/27 13:34:03;;;;;;;0.10;0.10;;;12.90;99.90;;;;;;5011555;28;20579;-83
2023/03/27 13:36:28;;;;;;;0.10;0.10;;;11.30;99.90;;;;;;5039256;23;20442;-79
2023/03/27 13:38:55;;;;;;;0.10;0.10;;;11.10;99.90;;;;;;5054891;28;21078;-81
2023/03/27 13:41:55;;;;;;;0.10;0.10;;;10.90;99.90;;;;;;5068265;28;20715;-80
2023/03/27 13:44:27;;;;;;;0.10;0.10;;;11.10;99.90;;;;;;5044389;28;20447;-81
2023/03/27 13:47:08;;;;;;;0.20;0.20;;;10.50;99.90;;;;;;5066694;28;20458;-82
2023/03/27 13:50:06;;;;;;;0.20;0.20;;;9.70;99.90;;;;;;5059345;28;20805;-84
2023/03/27 13:53:09;;;;;;;0.20;0.20;;;9.50;99.90;;;;;;5063554;28;20459;-83
2023/03/27 13:55:46;;;;;;;0.20;0.20;;;9.00;99.90;;;;;;5065303;28;20451;-85
2023/03/27 13:58:46;;;;;;;0.30;0.30;;;8.30;99.90;;;;;;5070100;28;20450;-83
2023/03/27 14:01:24;;;;;;;0.20;0.20;;;9.20;99.90;;;;;;5061707;28;20453;-85
2023/03/27 14:04:07;;;;;;;0.20;0.20;;;10.50;99.90;;;;;;5069040;28;20451;-85
2023/03/27 14:06:55;;;;;;;0.20;0.20;;;9.40;98.70;;;;;;5067699;28;20455;-85